地図

経路データ

SID SEASON NUMBER BASIN SUBBASIN NAME ISO_TIME NATURE LAT LON WMO_WIND WMO_PRES WMO_AGENCY TRACK_TYPE DIST2LAND LANDFALL IFLAG USA_AGENCY USA_ATCF_ID USA_LAT USA_LON USA_RECORD USA_STATUS USA_WIND USA_PRES USA_SSHS USA_R34_NE USA_R34_SE USA_R34_SW USA_R34_NW USA_R50_NE USA_R50_SE USA_R50_SW USA_R50_NW USA_R64_NE USA_R64_SE USA_R64_SW USA_R64_NW USA_POCI USA_ROCI USA_RMW USA_EYE TOKYO_LAT TOKYO_LON TOKYO_GRADE TOKYO_WIND TOKYO_PRES TOKYO_R50_DIR TOKYO_R50_LONG TOKYO_R50_SHORT TOKYO_R30_DIR TOKYO_R30_LONG TOKYO_R30_SHORT TOKYO_LAND CMA_LAT CMA_LON CMA_CAT CMA_WIND CMA_PRES HKO_LAT HKO_LON HKO_CAT HKO_WIND HKO_PRES NEWDELHI_LAT NEWDELHI_LON NEWDELHI_GRADE NEWDELHI_WIND NEWDELHI_PRES NEWDELHI_CI NEWDELHI_DP NEWDELHI_POCI REUNION_LAT REUNION_LON REUNION_TYPE REUNION_WIND REUNION_PRES REUNION_TNUM REUNION_CI REUNION_RMW REUNION_R34_NE REUNION_R34_SE REUNION_R34_SW REUNION_R34_NW REUNION_R50_NE REUNION_R50_SE REUNION_R50_SW REUNION_R50_NW REUNION_R64_NE REUNION_R64_SE REUNION_R64_SW REUNION_R64_NW BOM_LAT BOM_LON BOM_TYPE BOM_WIND BOM_PRES BOM_TNUM BOM_CI BOM_RMW BOM_R34_NE BOM_R34_SE BOM_R34_SW BOM_R34_NW BOM_R50_NE BOM_R50_SE BOM_R50_SW BOM_R50_NW BOM_R64_NE BOM_R64_SE BOM_R64_SW BOM_R64_NW BOM_ROCI BOM_POCI BOM_EYE BOM_POS_METHOD BOM_PRES_METHOD NADI_LAT NADI_LON NADI_CAT NADI_WIND NADI_PRES WELLINGTON_LAT WELLINGTON_LON WELLINGTON_WIND WELLINGTON_PRES DS824_LAT DS824_LON DS824_STAGE DS824_WIND DS824_PRES TD9636_LAT TD9636_LON TD9636_STAGE TD9636_WIND TD9636_PRES TD9635_LAT TD9635_LON TD9635_WIND TD9635_PRES TD9635_ROCI NEUMANN_LAT NEUMANN_LON NEUMANN_CLASS NEUMANN_WIND NEUMANN_PRES MLC_LAT MLC_LON MLC_CLASS MLC_WIND MLC_PRES USA_GUST BOM_GUST BOM_GUST_PER REUNION_GUST REUNION_GUST_PER USA_SEAHGT USA_SEARAD_NE USA_SEARAD_SE USA_SEARAD_SW USA_SEARAD_NW STORM_SPEED STORM_DIR
1881313N20303 1881 45 NA NA NOT_NAMED 1881-11-09 00:00:00 TS 20.0000 -57.0000 main 920 920 _____________O -1 20.0000 -57.0000 TD 30 0 0
1881313N20303 1881 45 NA NA NOT_NAMED 1881-11-09 03:00:00 TS 20.0075 -57.0000 main 920 920 _____________P -1 20.0075 -57.0000 TD 32 0 0
1881313N20303 1881 45 NA NA NOT_NAMED 1881-11-09 06:00:00 TS 20.0000 -57.0000 main 920 920 _____________O -1 20.0000 -57.0000 TS 35 0 139
1881313N20303 1881 45 NA NA NOT_NAMED 1881-11-09 09:00:00 TS 19.9775 -57.0000 main 920 920 _____________P -1 19.9775 -57.0000 TS 40 0 0
1881313N20303 1881 45 NA NA NOT_NAMED 1881-11-09 12:00:00 TS 20.0000 -57.0000 main 920 920 _____________O -1 20.0000 -57.0000 TS 45 2 6
1881313N20303 1881 45 NA NA NOT_NAMED 1881-11-09 15:00:00 TS 20.1350 -57.0000 main 922 922 _____________P -1 20.1350 -57.0000 TS 50 3 0
1881313N20303 1881 45 NA NA NOT_NAMED 1881-11-09 18:00:00 TS 20.3000 -57.0000 main 926 926 _____________O -1 20.3000 -57.0000 TS 55 3 3
1881313N20303 1881 45 NA NA NOT_NAMED 1881-11-09 21:00:00 TS 20.4000 -57.0000 main 929 929 _____________P -1 20.4000 -57.0000 TS 57 2 8
1881313N20303 1881 45 NA NA NOT_NAMED 1881-11-10 00:00:00 TS 20.5000 -57.0000 main 931 931 _____________O -1 20.5000 -57.0000 TS 60 3 2
1881313N20303 1881 45 NA NA NOT_NAMED 1881-11-10 03:00:00 TS 20.6500 -57.0000 main 936 934 _____________P -1 20.6500 -57.0000 TS 62 3 0
1881313N20303 1881 45 NA NA NOT_NAMED 1881-11-10 06:00:00 TS 20.8000 -57.0000 main 939 939 _____________O -1 20.8000 -57.0000 HU 65 2 0
1881313N20303 1881 45 NA NA NOT_NAMED 1881-11-10 09:00:00 TS 20.8850 -57.0000 main 942 942 _____________P -1 20.8850 -57.0000 HU 65 2 8
1881313N20303 1881 45 NA NA NOT_NAMED 1881-11-10 12:00:00 TS 21.0000 -57.0000 main 945 945 _____________O -1 21.0000 -57.0000 HU 65 3 358
1881313N20303 1881 45 NA NA NOT_NAMED 1881-11-10 15:00:00 TS 21.2275 -57.0075 main 952 952 _____________P -1 21.2275 -57.0075 HU 65 5 2
1881313N20303 1881 45 NA NA NOT_NAMED 1881-11-10 18:00:00 TS 21.5000 -57.0000 main 963 963 _____________O -1 21.5000 -57.0000 HU 65 5 3
1881313N20303 1881 45 NA NA NOT_NAMED 1881-11-10 21:00:00 TS 21.7500 -56.9650 main 970 970 _____________P -1 21.7500 -56.9650 HU 60 5 11
1881313N20303 1881 45 NA NA NOT_NAMED 1881-11-11 00:00:00 TS 22.0000 -56.9000 main 992 992 _____________O -1 22.0000 -56.9000 TS 55 5 17
1881313N20303 1881 45 NA NA NOT_NAMED 1881-11-11 03:00:00 TS 22.2500 -56.8075 main 1015 1015 _____________P -1 22.2500 -56.8075 TS 55 5 20
1881313N20303 1881 45 NA NA NOT_NAMED 1881-11-11 06:00:00 TS 22.5000 -56.7000 main 1033 1033 _____________O -1 22.5000 -56.7000 TS 55 5 19
1881313N20303 1881 45 NA NA NOT_NAMED 1881-11-11 09:00:00 TS 22.7574 -56.6224 main 1057 1057 _____________P -1 22.7574 -56.6224 TS 55 5 20
1881313N20303 1881 45 NA NA NOT_NAMED 1881-11-11 12:00:00 TS 23.0000 -56.5000 main 1076 1076 _____________O -1 23.0000 -56.5000 TS 55 6 35
1881313N20303 1881 45 NA NA NOT_NAMED 1881-11-11 15:00:00 TS 23.2075 -56.2725 main 1105 1105 _____________P -1 23.2075 -56.2725 TS 55 6 49
1881313N20303 1881 45 NA NA NOT_NAMED 1881-11-11 18:00:00 TS 23.4000 -56.0000 main 1142 1142 _____________O -1 23.4000 -56.0000 TS 55 6 51
1881313N20303 1881 45 NA NA NOT_NAMED 1881-11-11 21:00:00 TS 23.6000 -55.7499 main 1180 1180 _____________P -1 23.6000 -55.7499 TS 50 6 49
1881313N20303 1881 45 NA NA NOT_NAMED 1881-11-12 00:00:00 TS 23.8000 -55.5000 main 1208 1208 _____________O -1 23.8000 -55.5000 TS 45 6 48
1881313N20303 1881 45 NA NA NOT_NAMED 1881-11-12 03:00:00 TS 24.0075 -55.2500 main 1245 1245 _____________P -1 24.0075 -55.2500 TS 45 6 49
1881313N20303 1881 45 NA NA NOT_NAMED 1881-11-12 06:00:00 TS 24.2000 -55.0000 main 1274 1274 _____________O -1 24.2000 -55.0000 TS 45 6 48
1881313N20303 1881 45 NA NA NOT_NAMED 1881-11-12 09:00:00 TS 24.3872 -54.7876 main 1302 1302 _____________P -1 24.3872 -54.7876 TS 45 5 57
1881313N20303 1881 45 NA NA NOT_NAMED 1881-11-12 12:00:00 TS 24.5000 -54.5000 main 1334 1334 _____________O -1 24.5000 -54.5000 TS 45 7 82
1881313N20303 1881 45 NA NA NOT_NAMED 1881-11-12 15:00:00 TS 24.4801 -54.0373 main 1379 1379 _____________P -1 24.4801 -54.0373 TS 45 9 96
1881313N20303 1881 45 NA NA NOT_NAMED 1881-11-12 18:00:00 TS 24.4000 -53.5000 main 1419 1419 _____________O -1 24.4000 -53.5000 TS 45 9 96
1881313N20303 1881 45 NA NA NOT_NAMED 1881-11-12 21:00:00 TS 24.3873 -53.0005 main 1465 1465 _____________P -1 24.3873 -53.0005 TS 40 9 96
1881313N20303 1881 45 NA NA NOT_NAMED 1881-11-13 00:00:00 TS 24.3000 -52.5000 main 1507 1507 _____________O -1 24.3000 -52.5000 TS 35 10 111
1881313N20303 1881 45 NA NA NOT_NAMED 1881-11-13 03:00:00 TS 24.0448 -51.9999 main 1541 1541 _____________P -1 24.0448 -51.9999 TS 35 11 123
1881313N20303 1881 45 NA NA NOT_NAMED 1881-11-13 06:00:00 TS 23.7000 -51.5000 main 1577 1577 _____________O -1 23.7000 -51.5000 TS 35 12 122
1881313N20303 1881 45 NA NA NOT_NAMED 1881-11-13 09:00:00 TS 23.3803 -50.8565 main 1624 1624 _____________P -1 23.3803 -50.8565 TS 35 12 127
1881313N20303 1881 45 NA NA NOT_NAMED 1881-11-13 12:00:00 TS 23.0000 -50.5000 main 1651 1610 _____________O -1 23.0000 -50.5000 TS 35 9 177
1881313N20303 1881 45 NA NA NOT_NAMED 1881-11-13 15:00:00 TS 22.5227 -50.8162 main 1607 1534 _____________P -1 22.5227 -50.8162 TS 35 13 220
1881313N20303 1881 45 NA NA NOT_NAMED 1881-11-13 18:00:00 TS 22.0000 -51.4000 main 1534 1482 _____________O -1 22.0000 -51.4000 TS 35 14 222
1881313N20303 1881 45 NA NA NOT_NAMED 1881-11-13 21:00:00 TS 21.4998 -51.7996 main 1482 1432 _____________P -1 21.4998 -51.7996 TS 35 13 217
1881313N20303 1881 45 NA NA NOT_NAMED 1881-11-14 00:00:00 TS 21.0000 -52.2000 main 1432 1382 _____________O -1 21.0000 -52.2000 TS 35 13 218
1881313N20303 1881 45 NA NA NOT_NAMED 1881-11-14 03:00:00 TS 20.4999 -52.6423 main 1382 1324 _____________P -1 20.4999 -52.6423 TS 35 13 220
1881313N20303 1881 45 NA NA NOT_NAMED 1881-11-14 06:00:00 TS 20.0000 -53.1000 main 1324 1256 _____________O -1 20.0000 -53.1000 TS 35 15 219
1881313N20303 1881 45 NA NA NOT_NAMED 1881-11-14 09:00:00 TS 19.3652 -53.6032 main 1256 1195 _____________P -1 19.3652 -53.6032 TS 35 13 220
1881313N20303 1881 45 NA NA NOT_NAMED 1881-11-14 12:00:00 TS 19.0000 -54.0000 main 1195 1188 _____________O -1 19.0000 -54.0000 TS 35 5 260
1881313N20303 1881 45 NA NA NOT_NAMED 1881-11-14 15:00:00 TS 19.2723 -54.1595 main 1203 1203 _____________P -1 19.2723 -54.1595 TS 35 8 347
1881313N20303 1881 45 NA NA NOT_NAMED 1881-11-14 18:00:00 TS 19.8000 -54.2000 main 1207 1201 _____________O -1 19.8000 -54.2000 TS 35 9 354
1881313N20303 1881 45 NA NA NOT_NAMED 1881-11-14 21:00:00 TS 20.1500 -54.2576 main 1201 1201 _____________P -1 20.1500 -54.2576 TS 35 7 352
1881313N20303 1881 45 NA NA NOT_NAMED 1881-11-15 00:00:00 TS 20.5000 -54.3000 main 1207 1207 _____________O -1 20.5000 -54.3000 TS 35 8 354
1881313N20303 1881 45 NA NA NOT_NAMED 1881-11-15 03:00:00 TS 20.9000 -54.3500 main 1205 1205 _____________P -1 20.9000 -54.3500 TS 35 8 353
1881313N20303 1881 45 NA NA NOT_NAMED 1881-11-15 06:00:00 TS 21.3000 -54.4000 main 1215 1210 _____________O -1 21.3000 -54.4000 TS 35 8 349
1881313N20303 1881 45 NA NA NOT_NAMED 1881-11-15 09:00:00 TS 21.6499 -54.5170 main 1213 1213 _____________P -1 21.6499 -54.5170 TS 35 7 352
1881313N20303 1881 45 NA NA NOT_NAMED 1881-11-15 12:00:00 TS 22.0000 -54.5000 main 1225 1225 _____________O -1 22.0000 -54.5000 TS 35 8 24
1881313N20303 1881 45 NA NA NOT_NAMED 1881-11-15 15:00:00 TS 22.4003 -54.1605 main 1268 1268 _____________P -1 22.4003 -54.1605 TS 35 11 43
1881313N20303 1881 45 NA NA NOT_NAMED 1881-11-15 18:00:00 TS 22.8000 -53.7000 main 1331 1331 _____________O -1 22.8000 -53.7000 TS 35 11 45
1881313N20303 1881 45 NA NA NOT_NAMED 1881-11-15 21:00:00 TS 23.1498 -53.3496 main 1381 1381 _____________P -1 23.1498 -53.3496 TS 37 10 43
1881313N20303 1881 45 NA NA NOT_NAMED 1881-11-16 00:00:00 TS 23.5000 -53.0000 main 1426 1426 _____________O -1 23.5000 -53.0000 TS 40 10 43
1881313N20303 1881 45 NA NA NOT_NAMED 1881-11-16 03:00:00 TS 23.9000 -52.6000 main 1480 1480 _____________P -1 23.9000 -52.6000 TS 42 11 42
1881313N20303 1881 45 NA NA NOT_NAMED 1881-11-16 06:00:00 TS 24.3000 -52.2000 main 1535 1535 _____________O -1 24.3000 -52.2000 TS 45 10 39
1881313N20303 1881 45 NA NA NOT_NAMED 1881-11-16 09:00:00 TS 24.6562 -51.9388 main 1580 1580 _____________P -1 24.6562 -51.9388 TS 47 9 42
1881313N20303 1881 45 NA NA NOT_NAMED 1881-11-16 12:00:00 TS 25.0000 -51.5000 main 1631 1631 _____________O -1 25.0000 -51.5000 TS 50 14 60
1881313N20303 1881 45 NA NA NOT_NAMED 1881-11-16 15:00:00 TS 25.3584 -50.5979 main 1731 1731 _____________P -1 25.3584 -50.5979 TS 50 19 69
1881313N20303 1881 45 NA NA NOT_NAMED 1881-11-16 18:00:00 TS 25.7000 -49.5000 main 1846 1846 _____________O -1 25.7000 -49.5000 TS 50 20 71
1881313N20303 1881 45 NA NA NOT_NAMED 1881-11-16 21:00:00 TS 26.0068 -48.4993 main 1951 1951 _____________P -1 26.0068 -48.4993 TS 50 19 72
1881313N20303 1881 45 NA NA NOT_NAMED 1881-11-17 00:00:00 TS 26.3000 -47.5000 main 2056 2056 _____________O -1 26.3000 -47.5000 TS 50 19 72
1881313N20303 1881 45 NA NA NOT_NAMED 1881-11-17 03:00:00 TS 26.5993 -46.4995 main 2161 2161 _____________P -1 26.5993 -46.4995 TS 50 19 71
1881313N20303 1881 45 NA NA NOT_NAMED 1881-11-17 06:00:00 TS 26.9000 -45.5000 main 2266 2266 _____________O -1 26.9000 -45.5000 TS 50 18 73
1881313N20303 1881 45 NA NA NOT_NAMED 1881-11-17 09:00:00 TS 27.1313 -44.5197 main 2301 2286 _____________P -1 27.1313 -44.5197 TS 47 19 71
1881313N20303 1881 45 NA NA NOT_NAMED 1881-11-17 12:00:00 TS 27.5000 -43.5000 main 2289 2257 _____________O -1 27.5000 -43.5000 TS 45 22 61
1881313N20303 1881 45 NA NA NOT_NAMED 1881-11-17 15:00:00 TS 28.1823 -42.3658 main 2254 2214 _____________P -1 28.1823 -42.3658 TS 45 25 54
1881313N20303 1881 45 NA NA NOT_NAMED 1881-11-17 18:00:00 TS 29.0000 -41.2000 main 2218 2201 _____________O -1 29.0000 -41.2000 TS 45 23 54
1881313N20303 1881 45 NA NA NOT_NAMED 1881-11-17 21:00:00 TS 29.5727 -40.2124 main 2200 2167 _____________P -1 29.5727 -40.2124 TS 45 24 52
1881313N20303 1881 45 NA NA NOT_NAMED 1881-11-18 00:00:00 TS 30.5000 -39.0000 main 2158 2009 _____________O -1 30.5000 -39.0000 TS 45 38 45
1881313N20303 1881 45 NA NA NOT_NAMED 1881-11-18 03:00:00 TS 32.2383 -37.1413 main 1991 1853 _____________P -1 32.2383 -37.1413 TS 42 51 42
1881313N20303 1881 45 NA NA NOT_NAMED 1881-11-18 06:00:00 ET 34.3000 -35.0000 main 1848 1757 _____________O -1 34.3000 -35.0000 EX 40 53 41
1881313N20303 1881 45 NA NA NOT_NAMED 1881-11-18 09:00:00 ET 36.2192 -32.9652 main 1753 1703 _____________P -1 36.2192 -32.9652 EX 37 49 41
1881313N20303 1881 45 NA NA NOT_NAMED 1881-11-18 12:00:00 ET 38.0000 -31.0000 main 1702 _____________O -1 38.0000 -31.0000 EX 35 47 41

IBTrACS Databaseについて

本データベースは、米国NOAAが公開する1842年以降の世界の熱帯低気圧のベストトラックデータアーカイブInternational Best Track Archive for Climate Stewardship (IBTrACS)を、ウェブで閲覧しやすい形式に変換したものです。

最終更新日:2021-10-21